createdAt,value
2023-07-03T00:00:55.380Z,16.67
2023-07-03T00:03:41.733Z,16.64
2023-07-03T00:06:08.271Z,16.66
2023-07-03T00:08:34.778Z,16.68
2023-07-03T00:11:01.482Z,16.69
2023-07-03T00:13:28.031Z,16.70
2023-07-03T00:15:58.063Z,16.70
2023-07-03T00:18:24.585Z,16.71
2023-07-03T00:20:50.992Z,16.70
2023-07-03T00:23:17.486Z,16.70
2023-07-03T00:25:43.944Z,16.70
2023-07-03T00:28:10.270Z,16.70
2023-07-03T00:30:36.963Z,16.70
2023-07-03T00:33:03.351Z,16.70
2023-07-03T00:35:29.746Z,16.71
2023-07-03T00:37:56.107Z,16.72
2023-07-03T00:40:22.496Z,16.72
2023-07-03T00:42:48.893Z,16.69
2023-07-03T00:45:15.311Z,16.66
2023-07-03T00:47:41.764Z,16.63
2023-07-03T00:50:09.183Z,16.62
2023-07-03T00:52:35.620Z,16.62
2023-07-03T00:55:01.966Z,16.62
2023-07-03T00:57:28.504Z,16.61
2023-07-03T00:59:54.912Z,16.62
2023-07-03T01:02:34.458Z,16.61
2023-07-03T01:05:16.755Z,16.61
2023-07-03T01:07:44.278Z,16.62
2023-07-03T01:10:13.413Z,16.62
2023-07-03T01:12:42.297Z,16.62
2023-07-03T01:15:10.778Z,16.62
2023-07-03T01:17:38.840Z,16.62
2023-07-03T01:20:06.258Z,16.63
2023-07-03T01:22:36.189Z,16.62
2023-07-03T01:25:06.541Z,16.61
2023-07-03T01:27:34.842Z,16.59
2023-07-03T01:30:02.164Z,16.59
2023-07-03T01:32:30.069Z,16.58
2023-07-03T01:34:57.082Z,16.56
2023-07-03T01:37:25.116Z,16.54
2023-07-03T01:39:52.102Z,16.53
2023-07-03T01:42:20.716Z,16.53
2023-07-03T01:44:47.227Z,16.54
2023-07-03T01:47:13.978Z,16.53
2023-07-03T01:49:40.382Z,16.52
2023-07-03T01:52:11.329Z,16.50
2023-07-03T01:54:40.681Z,16.48
2023-07-03T01:57:07.845Z,16.48
2023-07-03T01:59:34.763Z,16.46
2023-07-03T02:02:01.250Z,16.43
2023-07-03T02:04:30.958Z,16.44
2023-07-03T02:06:58.318Z,16.44
2023-07-03T02:09:25.501Z,16.46
2023-07-03T02:11:52.712Z,16.46
2023-07-03T02:14:19.255Z,16.45
2023-07-03T02:16:45.820Z,16.44
2023-07-03T02:19:12.177Z,16.45
2023-07-03T02:21:38.583Z,16.44
2023-07-03T02:24:04.949Z,16.43
2023-07-03T02:26:32.102Z,16.42
2023-07-03T02:28:58.394Z,16.42
2023-07-03T02:31:24.883Z,16.42
2023-07-03T02:33:51.264Z,16.40
2023-07-03T02:36:17.623Z,16.40
2023-07-03T02:38:43.970Z,16.39
2023-07-03T02:41:10.672Z,16.34
2023-07-03T02:43:37.043Z,16.33
2023-07-03T02:46:04.332Z,16.33
2023-07-03T02:48:30.832Z,16.31
2023-07-03T02:50:57.633Z,16.30
2023-07-03T02:53:24.550Z,16.29
2023-07-03T02:55:56.678Z,16.28
2023-07-03T02:58:24.399Z,16.28
2023-07-03T03:00:50.876Z,16.31
2023-07-03T03:03:17.680Z,16.32
2023-07-03T03:05:44.165Z,16.33
2023-07-03T03:08:10.835Z,16.34
2023-07-03T03:10:37.554Z,16.34
2023-07-03T03:13:04.349Z,16.34
2023-07-03T03:15:33.828Z,16.36
2023-07-03T03:18:00.473Z,16.38
2023-07-03T03:20:27.000Z,16.38
2023-07-03T03:22:53.349Z,16.37
2023-07-03T03:25:19.788Z,16.35
2023-07-03T03:27:46.160Z,16.33
2023-07-03T03:30:12.630Z,16.31
2023-07-03T03:32:40.154Z,16.28
2023-07-03T03:35:06.979Z,16.25
2023-07-03T03:37:33.712Z,16.20
2023-07-03T03:40:00.941Z,16.16
2023-07-03T03:42:27.399Z,16.12
2023-07-03T03:44:54.478Z,16.08
2023-07-03T03:47:22.805Z,16.05
2023-07-03T03:49:49.689Z,16.01
2023-07-03T03:52:16.072Z,15.99
2023-07-03T03:54:42.492Z,15.97
2023-07-03T03:57:08.953Z,15.95
2023-07-03T03:59:35.770Z,15.99
2023-07-03T04:02:02.243Z,16.09
2023-07-03T04:04:28.807Z,16.20
2023-07-03T04:06:55.259Z,16.32
2023-07-03T04:09:21.583Z,16.44
2023-07-03T04:11:47.943Z,16.57
2023-07-03T04:14:14.333Z,16.72
2023-07-03T04:16:40.671Z,16.88
2023-07-03T04:19:07.067Z,17.05
2023-07-03T04:21:33.370Z,17.21
2023-07-03T04:23:59.671Z,17.36
2023-07-03T04:26:26.074Z,17.49
2023-07-03T04:28:52.454Z,17.60
2023-07-03T04:31:18.985Z,17.71
2023-07-03T04:33:45.409Z,17.83
2023-07-03T04:36:12.362Z,17.93
2023-07-03T04:38:39.629Z,18.01
2023-07-03T04:41:05.919Z,18.10
2023-07-03T04:43:32.253Z,18.19
2023-07-03T04:45:58.673Z,18.28
2023-07-03T04:48:25.224Z,18.36
2023-07-03T04:50:51.545Z,18.46
2023-07-03T04:53:18.604Z,18.57
2023-07-03T04:55:44.909Z,18.69
2023-07-03T04:58:11.220Z,18.77
2023-07-03T05:00:37.601Z,18.86
2023-07-03T05:03:04.342Z,18.94
2023-07-03T05:05:30.847Z,19.01
2023-07-03T05:07:58.898Z,19.08
2023-07-03T05:10:25.677Z,19.13
2023-07-03T05:12:52.087Z,19.21
2023-07-03T05:15:19.393Z,19.28
2023-07-03T05:17:49.856Z,19.35
2023-07-03T05:20:17.388Z,19.43
2023-07-03T05:22:44.507Z,19.51
2023-07-03T05:25:11.810Z,19.58
2023-07-03T05:27:38.670Z,19.66
2023-07-03T05:30:06.003Z,19.75
2023-07-03T05:32:32.563Z,19.76
2023-07-03T05:35:02.534Z,19.75
2023-07-03T05:37:29.204Z,19.78
2023-07-03T05:39:55.503Z,19.80
2023-07-03T05:42:21.867Z,19.87
2023-07-03T05:44:48.205Z,19.98
2023-07-03T05:47:15.408Z,20.07
2023-07-03T05:49:41.999Z,20.13
2023-07-03T05:52:09.219Z,20.18
2023-07-03T05:54:35.556Z,20.26
2023-07-03T05:57:09.340Z,20.31
2023-07-03T05:59:36.667Z,20.34
2023-07-03T06:02:04.472Z,20.42
2023-07-03T06:04:30.957Z,20.52
2023-07-03T06:06:57.426Z,20.59
2023-07-03T06:09:24.362Z,20.66
2023-07-03T06:11:50.773Z,20.75
2023-07-03T06:14:17.841Z,20.85
2023-07-03T06:16:45.261Z,20.90
2023-07-03T06:19:12.268Z,21.00
2023-07-03T06:21:38.798Z,21.11
2023-07-03T06:24:05.764Z,21.12
2023-07-03T06:26:32.228Z,21.13
2023-07-03T06:28:58.566Z,21.15
2023-07-03T06:31:24.931Z,21.20
2023-07-03T06:33:51.500Z,21.27
2023-07-03T06:36:17.861Z,21.31
2023-07-03T06:38:44.522Z,21.40
2023-07-03T06:41:10.911Z,21.43
2023-07-03T06:43:37.254Z,21.50
2023-07-03T06:46:03.625Z,21.60
2023-07-03T06:48:29.947Z,21.67
2023-07-03T06:51:05.938Z,21.75
2023-07-03T06:53:32.356Z,21.83
2023-07-03T06:55:59.537Z,21.85
2023-07-03T06:58:26.577Z,21.86
2023-07-03T07:00:53.034Z,21.89
2023-07-03T07:03:19.641Z,21.94
2023-07-03T07:05:46.235Z,21.96
2023-07-03T07:08:12.813Z,21.99
2023-07-03T07:10:39.411Z,22.05
2023-07-03T07:13:06.573Z,22.12
2023-07-03T07:15:37.486Z,22.23
2023-07-03T07:18:05.197Z,22.31
2023-07-03T07:20:36.157Z,22.35
2023-07-03T07:23:02.575Z,22.37
2023-07-03T07:25:28.880Z,22.43
2023-07-03T07:27:55.331Z,22.51
2023-07-03T07:30:21.705Z,22.56
2023-07-03T07:32:48.648Z,22.65
2023-07-03T07:35:15.262Z,22.77
2023-07-03T07:37:41.927Z,22.90
2023-07-03T07:40:09.083Z,23.05
2023-07-03T07:42:35.849Z,23.20
2023-07-03T07:45:02.547Z,23.37
2023-07-03T07:47:29.540Z,23.54
2023-07-03T07:49:55.928Z,23.70
2023-07-03T07:52:22.368Z,23.89
2023-07-03T07:54:48.671Z,24.02
2023-07-03T07:57:15.023Z,23.95
2023-07-03T07:59:41.345Z,23.89
2023-07-03T08:02:07.870Z,23.97
2023-07-03T08:04:34.408Z,23.95
2023-07-03T08:07:00.992Z,23.74
2023-07-03T08:09:27.393Z,23.59
2023-07-03T08:11:53.771Z,23.57
2023-07-03T08:14:20.205Z,23.60
2023-07-03T08:16:46.735Z,23.69
2023-07-03T08:19:13.075Z,23.83
2023-07-03T08:21:39.380Z,23.85
2023-07-03T08:24:06.435Z,23.92
2023-07-03T08:26:32.964Z,24.02
2023-07-03T08:28:59.355Z,24.06
2023-07-03T08:31:25.780Z,23.94
2023-07-03T08:33:52.292Z,23.86
2023-07-03T08:38:48.076Z,23.63
2023-07-03T08:41:15.308Z,23.49
2023-07-03T08:43:43.234Z,23.41
2023-07-03T08:46:11.807Z,23.43
2023-07-03T08:48:39.147Z,23.44
2023-07-03T08:51:07.648Z,23.51
2023-07-03T08:53:39.463Z,23.63
2023-07-03T08:56:11.902Z,23.71
2023-07-03T08:58:38.278Z,23.83
2023-07-03T09:01:23.334Z,23.89
2023-07-03T09:03:59.800Z,24.00
2023-07-03T09:06:40.425Z,24.16
2023-07-03T09:09:06.793Z,24.29
2023-07-03T09:11:35.828Z,24.35
2023-07-03T09:14:03.336Z,24.43
2023-07-03T09:16:30.717Z,24.30
2023-07-03T09:19:00.069Z,24.14
2023-07-03T09:21:28.682Z,24.22
2023-07-03T09:24:00.611Z,24.50
2023-07-03T09:26:32.219Z,24.58
2023-07-03T09:28:58.666Z,24.58
2023-07-03T09:31:26.874Z,24.44
2023-07-03T09:33:53.441Z,24.37
2023-07-03T09:36:28.677Z,24.35
2023-07-03T09:38:55.072Z,24.39
2023-07-03T09:41:29.316Z,24.54
2023-07-03T09:43:55.960Z,24.81
2023-07-03T09:46:23.070Z,25.06
2023-07-03T09:48:50.669Z,25.19
2023-07-03T09:51:20.953Z,25.16
2023-07-03T09:53:47.272Z,25.09
2023-07-03T09:56:16.663Z,24.94
2023-07-03T09:58:48.562Z,24.89
2023-07-03T10:04:04.541Z,24.72
2023-07-03T10:07:06.595Z,24.40
2023-07-03T10:12:11.453Z,24.46
2023-07-03T10:14:41.121Z,24.74
2023-07-03T10:17:08.628Z,24.92
2023-07-03T10:19:35.084Z,25.10
2023-07-03T10:22:01.816Z,25.21
2023-07-03T10:24:28.339Z,25.21
2023-07-03T10:26:57.876Z,25.04
2023-07-03T10:29:26.698Z,25.05
2023-07-03T10:31:55.746Z,25.34
2023-07-03T10:34:48.282Z,25.67
2023-07-03T10:37:17.840Z,26.21
2023-07-03T10:39:58.749Z,26.71
2023-07-03T10:42:30.097Z,27.35
2023-07-03T10:44:59.568Z,27.82
2023-07-03T10:47:29.006Z,27.93
2023-07-03T10:49:55.487Z,27.98
2023-07-03T10:52:42.605Z,28.04
2023-07-03T10:55:18.502Z,28.41
2023-07-03T10:57:52.408Z,28.69
2023-07-03T11:00:25.403Z,28.72
2023-07-03T11:02:59.805Z,28.72
2023-07-03T11:05:29.261Z,28.88
2023-07-03T11:08:00.787Z,29.04
2023-07-03T11:10:37.067Z,29.07
2023-07-03T11:13:16.221Z,29.26
2023-07-03T11:16:05.450Z,29.27
2023-07-03T11:23:54.184Z,29.51
2023-07-03T11:28:52.675Z,30.11
2023-07-03T11:31:19.613Z,30.35
2023-07-03T11:36:49.215Z,30.03
2023-07-03T11:44:39.914Z,30.32
2023-07-03T11:47:25.675Z,29.69
2023-07-03T11:49:58.587Z,29.59
2023-07-03T11:52:28.992Z,29.89
2023-07-03T11:54:59.974Z,30.20
2023-07-03T11:57:33.866Z,30.59
2023-07-03T12:00:17.665Z,30.76
2023-07-03T12:02:44.118Z,31.02
2023-07-03T12:05:10.554Z,31.17
2023-07-03T12:07:36.928Z,31.38
2023-07-03T12:10:32.700Z,31.86
2023-07-03T12:13:17.824Z,31.92
2023-07-03T12:15:44.240Z,31.65
2023-07-03T12:18:11.220Z,30.96
2023-07-03T12:20:38.155Z,30.27
2023-07-03T12:23:04.686Z,29.64
2023-07-03T12:25:31.103Z,29.27
2023-07-03T12:28:08.698Z,28.71
2023-07-03T12:30:35.086Z,27.99
2023-07-03T12:33:01.468Z,27.46
2023-07-03T12:35:32.171Z,27.97
2023-07-03T12:38:09.986Z,28.67
2023-07-03T12:40:43.738Z,28.75
2023-07-03T12:43:10.568Z,28.59
2023-07-03T12:45:37.172Z,28.26
2023-07-03T12:48:04.752Z,28.26
2023-07-03T12:50:32.022Z,28.92
2023-07-03T12:52:59.294Z,29.78
2023-07-03T12:55:35.247Z,30.22
2023-07-03T12:58:01.773Z,31.19
2023-07-03T13:00:32.312Z,31.93
2023-07-03T13:02:59.920Z,32.37
2023-07-03T13:05:26.868Z,33.02
2023-07-03T13:07:53.358Z,33.43
2023-07-03T13:10:20.602Z,33.82
2023-07-03T13:13:02.349Z,34.51
2023-07-03T13:15:30.663Z,35.23
2023-07-03T13:18:04.932Z,35.45
2023-07-03T13:20:31.454Z,35.38
2023-07-03T13:22:59.772Z,35.48
2023-07-03T13:25:36.835Z,35.83
2023-07-03T13:28:06.377Z,35.96
2023-07-03T13:30:34.229Z,36.38
2023-07-03T13:33:08.494Z,36.53
2023-07-03T13:35:35.098Z,35.92
2023-07-03T13:38:11.749Z,35.52
2023-07-03T13:40:38.152Z,35.81
2023-07-03T13:43:04.496Z,35.91
2023-07-03T13:45:31.463Z,35.89
2023-07-03T13:47:58.003Z,35.25
2023-07-03T13:50:24.379Z,35.73
2023-07-03T13:52:50.796Z,36.05
2023-07-03T13:55:17.154Z,35.80
2023-07-03T13:57:43.540Z,35.44
2023-07-03T14:00:10.299Z,34.78
2023-07-03T14:02:48.085Z,34.42
2023-07-03T14:05:16.050Z,33.62
2023-07-03T14:07:42.488Z,33.73
2023-07-03T14:10:14.106Z,34.03
2023-07-03T14:12:42.904Z,34.85
2023-07-03T14:15:17.602Z,35.29
2023-07-03T14:17:44.420Z,35.71
2023-07-03T14:20:11.468Z,35.31
2023-07-03T14:22:38.614Z,35.55
2023-07-03T14:25:05.619Z,35.84
2023-07-03T14:27:35.423Z,36.04
2023-07-03T14:30:01.814Z,35.58
2023-07-03T14:32:39.851Z,35.82
2023-07-03T14:35:14.660Z,36.12
2023-07-03T14:37:41.032Z,35.09
2023-07-03T14:40:07.662Z,34.91
2023-07-03T14:42:34.021Z,35.63
2023-07-03T14:45:00.393Z,36.50
2023-07-03T14:47:26.788Z,36.92
2023-07-03T14:49:53.416Z,36.78
2023-07-03T14:52:20.616Z,37.11
2023-07-03T14:54:47.379Z,36.51
2023-07-03T14:57:14.447Z,35.68
2023-07-03T14:59:42.441Z,35.13
2023-07-03T15:02:09.181Z,34.34
2023-07-03T15:04:35.743Z,33.18
2023-07-03T15:07:02.097Z,32.22
2023-07-03T15:09:28.444Z,31.47
2023-07-03T15:11:54.913Z,31.40
2023-07-03T15:14:21.228Z,32.33
2023-07-03T15:16:47.684Z,32.68
2023-07-03T15:19:14.020Z,32.17
2023-07-03T15:21:40.379Z,31.77
2023-07-03T15:24:07.520Z,32.71
2023-07-03T15:26:34.140Z,33.85
2023-07-03T15:29:00.562Z,34.12
2023-07-03T15:31:27.058Z,33.15
2023-07-03T15:33:53.984Z,32.60
2023-07-03T15:36:20.338Z,32.12
2023-07-03T15:38:46.848Z,32.40
2023-07-03T15:41:13.239Z,33.90
2023-07-03T15:43:39.617Z,35.19
2023-07-03T15:46:06.034Z,35.46
2023-07-03T15:48:32.712Z,36.03
2023-07-03T15:50:59.819Z,36.79
2023-07-03T15:53:26.826Z,36.93
2023-07-03T15:56:02.881Z,37.00
2023-07-03T15:58:30.845Z,37.41
2023-07-03T16:01:06.493Z,37.66
2023-07-03T16:03:34.733Z,37.96
2023-07-03T16:06:03.825Z,38.10
2023-07-03T16:08:31.070Z,38.11
2023-07-03T16:10:57.486Z,38.28
2023-07-03T16:13:25.888Z,38.75
2023-07-03T16:15:52.639Z,38.96
2023-07-03T16:18:19.132Z,38.58
2023-07-03T16:20:51.334Z,38.50
2023-07-03T16:23:17.713Z,38.86
2023-07-03T16:25:48.594Z,39.35
2023-07-03T16:28:15.298Z,39.72
2023-07-03T16:30:41.742Z,39.69
2023-07-03T16:33:08.200Z,39.45
2023-07-03T16:35:34.575Z,39.33
2023-07-03T16:38:00.911Z,39.11
2023-07-03T16:40:28.567Z,39.11
2023-07-03T16:42:55.041Z,38.98
2023-07-03T16:45:21.476Z,38.94
2023-07-03T16:47:47.998Z,38.69
2023-07-03T16:50:14.442Z,38.37
2023-07-03T16:52:40.794Z,38.13
2023-07-03T16:55:07.321Z,38.28
2023-07-03T16:57:33.666Z,38.29
2023-07-03T17:00:00.101Z,38.32
2023-07-03T17:02:26.596Z,38.08
2023-07-03T17:04:52.962Z,37.67
2023-07-03T17:07:19.447Z,37.42
2023-07-03T17:09:45.874Z,37.16
2023-07-03T17:12:12.282Z,37.10
2023-07-03T17:14:38.643Z,37.21
2023-07-03T17:17:07.523Z,36.99
2023-07-03T17:19:33.950Z,36.74
2023-07-03T17:22:00.327Z,35.77
2023-07-03T17:24:26.623Z,34.28
2023-07-03T17:26:53.042Z,32.90
2023-07-03T17:29:19.525Z,31.76
2023-07-03T17:31:45.995Z,30.87
2023-07-03T17:34:12.787Z,30.11
2023-07-03T17:36:39.172Z,29.35
2023-07-03T17:39:05.520Z,28.73
2023-07-03T17:41:31.848Z,28.26
2023-07-03T17:43:58.228Z,27.86
2023-07-03T17:46:27.636Z,27.48
2023-07-03T17:48:54.023Z,27.15
2023-07-03T17:51:20.440Z,26.86
2023-07-03T17:53:46.849Z,26.58
2023-07-03T17:56:13.268Z,26.34
2023-07-03T17:58:39.674Z,26.10
2023-07-03T18:01:06.083Z,25.84
2023-07-03T18:03:32.635Z,25.59
2023-07-03T18:05:59.169Z,25.32
2023-07-03T18:08:25.671Z,25.05
2023-07-03T18:10:52.090Z,24.82
2023-07-03T18:13:18.653Z,24.60
2023-07-03T18:15:49.728Z,24.38
2023-07-03T18:18:21.374Z,24.19
2023-07-03T18:20:48.353Z,24.01
2023-07-03T18:23:14.715Z,23.84
2023-07-03T18:25:41.213Z,23.66
2023-07-03T18:28:08.310Z,23.47
2023-07-03T18:30:34.672Z,23.29
2023-07-03T18:33:01.141Z,23.12
2023-07-03T18:35:27.602Z,22.95
2023-07-03T18:37:54.021Z,22.78
2023-07-03T18:40:20.463Z,22.63
2023-07-03T18:42:46.893Z,22.46
2023-07-03T18:45:13.960Z,22.31
2023-07-03T18:47:40.426Z,22.16
2023-07-03T18:50:07.921Z,22.01
2023-07-03T18:52:34.404Z,21.89
2023-07-03T18:55:00.921Z,21.78
2023-07-03T18:57:27.451Z,21.67
2023-07-03T18:59:53.767Z,21.54
2023-07-03T19:02:20.150Z,21.43
2023-07-03T19:04:46.604Z,21.30
2023-07-03T19:07:13.002Z,21.19
2023-07-03T19:09:39.383Z,21.09
2023-07-03T19:12:08.066Z,21.00
2023-07-03T19:14:35.957Z,20.91
2023-07-03T19:17:02.954Z,20.85
2023-07-03T19:19:36.662Z,20.78
2023-07-03T19:22:03.156Z,20.71
2023-07-03T19:24:32.057Z,20.67
2023-07-03T19:26:58.395Z,20.64
2023-07-03T19:29:24.875Z,20.63
2023-07-03T19:31:51.237Z,20.61
2023-07-03T19:34:17.616Z,20.59
2023-07-03T19:36:44.446Z,20.57
2023-07-03T19:39:10.924Z,20.57
2023-07-03T19:41:39.806Z,20.58
2023-07-03T19:44:07.814Z,20.56
2023-07-03T19:46:35.314Z,20.54
2023-07-03T19:49:05.873Z,20.51
2023-07-03T19:51:32.889Z,20.47
2023-07-03T19:53:59.248Z,20.44
2023-07-03T19:56:25.819Z,20.41
2023-07-03T19:58:52.252Z,20.38
2023-07-03T20:01:18.952Z,20.35
2023-07-03T20:03:45.708Z,20.32
2023-07-03T20:06:13.282Z,20.30
2023-07-03T20:08:39.640Z,20.27
2023-07-03T20:11:06.138Z,20.24
2023-07-03T20:13:32.588Z,20.20
2023-07-03T20:16:03.210Z,20.15
2023-07-03T20:18:29.852Z,20.11
2023-07-03T20:20:56.378Z,20.07
2023-07-03T20:23:22.756Z,20.04
2023-07-03T20:25:52.959Z,20.01
2023-07-03T20:28:19.627Z,19.99
2023-07-03T20:30:46.739Z,19.96
2023-07-03T20:33:13.158Z,19.95
2023-07-03T20:35:39.594Z,19.94
2023-07-03T20:38:05.987Z,19.93
2023-07-03T20:40:32.861Z,19.92
2023-07-03T20:42:59.321Z,19.90
2023-07-03T20:45:26.362Z,19.88
2023-07-03T20:47:52.883Z,19.86
2023-07-03T20:50:19.300Z,19.83
2023-07-03T20:52:45.768Z,19.80
2023-07-03T20:55:12.118Z,19.78
2023-07-03T20:57:38.481Z,19.75
2023-07-03T21:00:05.049Z,19.71
2023-07-03T21:02:32.051Z,19.67
2023-07-03T21:04:59.185Z,19.63
2023-07-03T21:07:25.626Z,19.58
2023-07-03T21:09:52.301Z,19.56
2023-07-03T21:12:18.654Z,19.53
2023-07-03T21:14:45.049Z,19.52
2023-07-03T21:17:11.610Z,19.52
2023-07-03T21:19:37.998Z,19.50
2023-07-03T21:22:04.577Z,19.49
2023-07-03T21:24:31.062Z,19.47
2023-07-03T21:26:57.478Z,19.43
2023-07-03T21:29:23.968Z,19.37
2023-07-03T21:31:50.435Z,19.33
2023-07-03T21:34:16.860Z,19.30
2023-07-03T21:36:43.324Z,19.29
2023-07-03T21:39:10.273Z,19.27
2023-07-03T21:41:37.464Z,19.25
2023-07-03T21:44:14.012Z,19.24
2023-07-03T21:46:40.673Z,19.23
2023-07-03T21:49:10.233Z,19.21
2023-07-03T21:51:36.625Z,19.16
2023-07-03T21:54:03.040Z,19.11
2023-07-03T21:56:30.057Z,19.10
2023-07-03T21:59:01.266Z,19.11
2023-07-03T22:01:38.104Z,19.13
2023-07-03T22:04:05.831Z,19.14
2023-07-03T22:06:32.297Z,19.16
2023-07-03T22:08:59.006Z,19.17
2023-07-03T22:11:26.189Z,19.18
2023-07-03T22:13:52.599Z,19.19
2023-07-03T22:16:19.676Z,19.19
2023-07-03T22:18:46.131Z,19.18
2023-07-03T22:21:13.055Z,19.17
2023-07-03T22:23:39.542Z,19.15
2023-07-03T22:26:05.942Z,19.12
2023-07-03T22:28:32.379Z,19.08
2023-07-03T22:30:58.796Z,19.02
2023-07-03T22:33:25.351Z,18.95
2023-07-03T22:35:52.623Z,18.88
2023-07-03T22:38:19.420Z,18.82
2023-07-03T22:40:48.473Z,18.74
2023-07-03T22:43:14.869Z,18.67
2023-07-03T22:45:41.194Z,18.61
2023-07-03T22:48:07.669Z,18.56
2023-07-03T22:50:34.092Z,18.52
2023-07-03T22:53:00.459Z,18.49
2023-07-03T22:55:27.002Z,18.46
2023-07-03T22:57:53.397Z,18.43
2023-07-03T23:00:19.743Z,18.42
2023-07-03T23:02:46.254Z,18.36
2023-07-03T23:05:13.344Z,18.31
2023-07-03T23:07:39.982Z,18.28
2023-07-03T23:10:06.843Z,18.24
2023-07-03T23:12:33.707Z,18.21
2023-07-03T23:15:00.286Z,18.18
2023-07-03T23:17:30.891Z,18.15
2023-07-03T23:19:57.563Z,18.14
2023-07-03T23:22:24.695Z,18.14
2023-07-03T23:24:54.728Z,18.15
2023-07-03T23:27:21.518Z,18.16
2023-07-03T23:29:48.259Z,18.19
2023-07-03T23:32:14.812Z,18.21
2023-07-03T23:34:41.704Z,18.21
2023-07-03T23:37:08.312Z,18.20
2023-07-03T23:39:37.963Z,18.20
2023-07-03T23:42:05.185Z,18.21
2023-07-03T23:44:31.924Z,18.22
2023-07-03T23:46:58.364Z,18.23
2023-07-03T23:49:24.965Z,18.25
2023-07-03T23:51:51.403Z,18.24
2023-07-03T23:54:17.787Z,18.25
2023-07-03T23:56:45.327Z,18.24
2023-07-03T23:59:11.664Z,18.23
